地図

経路データ

SID SEASON NUMBER BASIN SUBBASIN NAME ISO_TIME NATURE LAT LON WMO_WIND WMO_PRES WMO_AGENCY TRACK_TYPE DIST2LAND LANDFALL IFLAG USA_AGENCY USA_ATCF_ID USA_LAT USA_LON USA_RECORD USA_STATUS USA_WIND USA_PRES USA_SSHS USA_R34_NE USA_R34_SE USA_R34_SW USA_R34_NW USA_R50_NE USA_R50_SE USA_R50_SW USA_R50_NW USA_R64_NE USA_R64_SE USA_R64_SW USA_R64_NW USA_POCI USA_ROCI USA_RMW USA_EYE TOKYO_LAT TOKYO_LON TOKYO_GRADE TOKYO_WIND TOKYO_PRES TOKYO_R50_DIR TOKYO_R50_LONG TOKYO_R50_SHORT TOKYO_R30_DIR TOKYO_R30_LONG TOKYO_R30_SHORT TOKYO_LAND CMA_LAT CMA_LON CMA_CAT CMA_WIND CMA_PRES HKO_LAT HKO_LON HKO_CAT HKO_WIND HKO_PRES NEWDELHI_LAT NEWDELHI_LON NEWDELHI_GRADE NEWDELHI_WIND NEWDELHI_PRES NEWDELHI_CI NEWDELHI_DP NEWDELHI_POCI REUNION_LAT REUNION_LON REUNION_TYPE REUNION_WIND REUNION_PRES REUNION_TNUM REUNION_CI REUNION_RMW REUNION_R34_NE REUNION_R34_SE REUNION_R34_SW REUNION_R34_NW REUNION_R50_NE REUNION_R50_SE REUNION_R50_SW REUNION_R50_NW REUNION_R64_NE REUNION_R64_SE REUNION_R64_SW REUNION_R64_NW BOM_LAT BOM_LON BOM_TYPE BOM_WIND BOM_PRES BOM_TNUM BOM_CI BOM_RMW BOM_R34_NE BOM_R34_SE BOM_R34_SW BOM_R34_NW BOM_R50_NE BOM_R50_SE BOM_R50_SW BOM_R50_NW BOM_R64_NE BOM_R64_SE BOM_R64_SW BOM_R64_NW BOM_ROCI BOM_POCI BOM_EYE BOM_POS_METHOD BOM_PRES_METHOD NADI_LAT NADI_LON NADI_CAT NADI_WIND NADI_PRES WELLINGTON_LAT WELLINGTON_LON WELLINGTON_WIND WELLINGTON_PRES DS824_LAT DS824_LON DS824_STAGE DS824_WIND DS824_PRES TD9636_LAT TD9636_LON TD9636_STAGE TD9636_WIND TD9636_PRES TD9635_LAT TD9635_LON TD9635_WIND TD9635_PRES TD9635_ROCI NEUMANN_LAT NEUMANN_LON NEUMANN_CLASS NEUMANN_WIND NEUMANN_PRES MLC_LAT MLC_LON MLC_CLASS MLC_WIND MLC_PRES USA_GUST BOM_GUST BOM_GUST_PER REUNION_GUST REUNION_GUST_PER USA_SEAHGT USA_SEARAD_NE USA_SEARAD_SE USA_SEARAD_SW USA_SEARAD_NW STORM_SPEED STORM_DIR
1970294N34312 1970 137 NA NA NOT_NAMED 1970-10-20 12:00:00 SS 34.0000 -48.0000 25 1013 hurdat_atl main 1468 1454 O_____________ hurdat_atl AL191970 34.0000 -48.0000 SD 25 1013 -2 6 60
1970294N34312 1970 137 NA NA NOT_NAMED 1970-10-20 15:00:00 SS 34.1626 -47.6628 main 1454 1452 P_____________ AL191970 34.1626 -47.6628 SD 27 1012 -2 7 63
1970294N34312 1970 137 NA NA NOT_NAMED 1970-10-20 18:00:00 SS 34.3000 -47.3000 30 hurdat_atl main 1455 1450 I_____________ hurdat_atl AL191970 34.3000 -47.3000 SD 30 1011 -2 7 69
1970294N34312 1970 137 NA NA NOT_NAMED 1970-10-20 21:00:00 SS 34.4000 -46.8998 main 1456 1452 P_____________ AL191970 34.4000 -46.8998 SD 30 1010 -2 7 73
1970294N34312 1970 137 NA NA NOT_NAMED 1970-10-21 00:00:00 SS 34.5000 -46.5000 30 1009 hurdat_atl main 1458 1451 O_____________ hurdat_atl AL191970 34.5000 -46.5000 SD 30 1009 -2 7 68
1970294N34312 1970 137 NA NA NOT_NAMED 1970-10-21 03:00:00 SS 34.6498 -46.1500 main 1461 1447 P_____________ AL191970 34.6498 -46.1500 SD 32 1008 -2 6 62
1970294N34312 1970 137 NA NA NOT_NAMED 1970-10-21 06:00:00 SS 34.8000 -45.8000 35 hurdat_atl main 1451 1448 I_____________ hurdat_atl AL191970 34.8000 -45.8000 SS 35 1007 -2 7 67
1970294N34312 1970 137 NA NA NOT_NAMED 1970-10-21 09:00:00 SS 34.9228 -45.3476 main 1459 1452 P_____________ AL191970 34.9228 -45.3476 SS 35 1006 -2 7 73
1970294N34312 1970 137 NA NA NOT_NAMED 1970-10-21 12:00:00 SS 35.0000 -45.0000 35 1005 hurdat_atl main 1460 1460 O_____________ hurdat_atl AL191970 35.0000 -45.0000 SS 35 1005 -2 3 75
1970294N34312 1970 137 NA NA NOT_NAMED 1970-10-21 15:00:00 SS 35.0148 -44.9398 main 1464 1460 P_____________ AL191970 35.0148 -44.9398 SS 37 -2 0 0
1970294N34312 1970 137 NA NA NOT_NAMED 1970-10-21 18:00:00 SS 35.0000 -45.0000 40 hurdat_atl main 1460 1460 O_____________ hurdat_atl AL191970 35.0000 -45.0000 SS 40 -2 1 255
1970294N34312 1970 137 NA NA NOT_NAMED 1970-10-21 21:00:00 SS 35.0000 -45.0000 main 1460 1460 P_____________ AL191970 35.0000 -45.0000 SS 40 -2 0 0
1970294N34312 1970 137 NA NA NOT_NAMED 1970-10-22 00:00:00 SS 35.0000 -45.0000 40 hurdat_atl main 1460 1460 O_____________ hurdat_atl AL191970 35.0000 -45.0000 SS 40 -2 0 0
1970294N34312 1970 137 NA NA NOT_NAMED 1970-10-22 03:00:00 SS 35.0000 -45.0000 main 1460 1460 P_____________ AL191970 35.0000 -45.0000 SS 42 -2 0 0
1970294N34312 1970 137 NA NA NOT_NAMED 1970-10-22 06:00:00 SS 35.0000 -45.0000 45 hurdat_atl main 1460 1460 O_____________ hurdat_atl AL191970 35.0000 -45.0000 SS 45 -2 0 0
1970294N34312 1970 137 NA NA NOT_NAMED 1970-10-22 09:00:00 SS 34.9850 -45.0224 main 1460 1460 P_____________ AL191970 34.9850 -45.0224 SS 45 -2 0 0
1970294N34312 1970 137 NA NA NOT_NAMED 1970-10-22 12:00:00 SS 35.0000 -45.0000 45 1000 hurdat_atl main 1460 1454 O_____________ hurdat_atl AL191970 35.0000 -45.0000 SS 45 1000 -2 1 45
1970294N34312 1970 137 NA NA NOT_NAMED 1970-10-22 15:00:00 SS 35.0774 -44.9024 main 1454 1448 P_____________ AL191970 35.0774 -44.9024 SS 45 999 -2 3 51
1970294N34312 1970 137 NA NA NOT_NAMED 1970-10-22 18:00:00 SS 35.2000 -44.7000 45 hurdat_atl main 1452 1446 I_____________ hurdat_atl AL191970 35.2000 -44.7000 SS 45 998 -2 5 59
1970294N34312 1970 137 NA NA NOT_NAMED 1970-10-22 21:00:00 SS 35.3275 -44.3873 main 1455 1448 P_____________ AL191970 35.3275 -44.3873 SS 45 997 -2 6 62
1970294N34312 1970 137 NA NA NOT_NAMED 1970-10-23 00:00:00 SS 35.5000 -44.0000 45 997 hurdat_atl main 1452 1446 O_____________ hurdat_atl AL191970 35.5000 -44.0000 SS 45 997 -2 8 58
1970294N34312 1970 137 NA NA NOT_NAMED 1970-10-23 03:00:00 SS 35.7350 -43.6001 main 1450 1436 P_____________ AL191970 35.7350 -43.6001 SS 45 -2 8 52
1970294N34312 1970 137 NA NA NOT_NAMED 1970-10-23 06:00:00 SS 36.0000 -43.2000 45 hurdat_atl main 1441 1427 O_____________ hurdat_atl AL191970 36.0000 -43.2000 SS 45 -2 8 49
1970294N34312 1970 137 NA NA NOT_NAMED 1970-10-23 09:00:00 SS 36.2800 -42.8202 main 1432 1423 P_____________ AL191970 36.2800 -42.8202 SS 47 -2 8 48
1970294N34312 1970 137 NA NA NOT_NAMED 1970-10-23 12:00:00 SS 36.5000 -42.5000 50 hurdat_atl main 1428 1424 O_____________ hurdat_atl AL191970 36.5000 -42.5000 SS 50 -2 5 55
1970294N34312 1970 137 NA NA NOT_NAMED 1970-10-23 15:00:00 SS 36.5949 -42.2697 main 1430 1430 P_____________ AL191970 36.5949 -42.2697 SS 50 -2 3 73
1970294N34312 1970 137 NA NA NOT_NAMED 1970-10-23 18:00:00 SS 36.6000 -42.1000 50 hurdat_atl main 1440 1440 O_____________ hurdat_atl AL191970 36.6000 -42.1000 SS 50 -2 3 95
1970294N34312 1970 137 NA NA NOT_NAMED 1970-10-23 21:00:00 SS 36.5725 -41.9274 main 1451 1451 P_____________ AL191970 36.5725 -41.9274 SS 50 -2 3 113
1970294N34312 1970 137 NA NA NOT_NAMED 1970-10-24 00:00:00 SS 36.5000 -41.8000 50 hurdat_atl main 1465 1465 O_____________ hurdat_atl AL191970 36.5000 -41.8000 SS 50 -2 2 137
1970294N34312 1970 137 NA NA NOT_NAMED 1970-10-24 03:00:00 SS 36.4150 -41.7426 main 1479 1479 P_____________ AL191970 36.4150 -41.7426 SS 50 -2 2 157
1970294N34312 1970 137 NA NA NOT_NAMED 1970-10-24 06:00:00 SS 36.3000 -41.7000 50 hurdat_atl main 1488 1488 O_____________ hurdat_atl AL191970 36.3000 -41.7000 SS 50 -2 3 155
1970294N34312 1970 137 NA NA NOT_NAMED 1970-10-24 09:00:00 SS 36.1725 -41.6075 main 1502 1502 P_____________ AL191970 36.1725 -41.6075 SS 50 -2 3 152
1970294N34312 1970 137 NA NA NOT_NAMED 1970-10-24 12:00:00 SS 36.0000 -41.5000 50 hurdat_atl main 1526 1526 O_____________ hurdat_atl AL191970 36.0000 -41.5000 SS 50 -2 4 158
1970294N34312 1970 137 NA NA NOT_NAMED 1970-10-24 15:00:00 SS 35.7650 -41.4076 main 1549 1549 P_____________ AL191970 35.7650 -41.4076 SS 50 -2 5 162
1970294N34312 1970 137 NA NA NOT_NAMED 1970-10-24 18:00:00 SS 35.5000 -41.3000 50 hurdat_atl main 1581 1581 O_____________ hurdat_atl AL191970 35.5000 -41.3000 SS 50 -2 6 158
1970294N34312 1970 137 NA NA NOT_NAMED 1970-10-24 21:00:00 SS 35.2500 -41.1500 main 1610 1610 P_____________ AL191970 35.2500 -41.1500 SS 50 -2 6 154
1970294N34312 1970 137 NA NA NOT_NAMED 1970-10-25 00:00:00 SS 35.0000 -41.0000 50 hurdat_atl main 1643 1643 O_____________ hurdat_atl AL191970 35.0000 -41.0000 SS 50 -2 5 158
1970294N34312 1970 137 NA NA NOT_NAMED 1970-10-25 03:00:00 SS 34.7500 -40.9002 main 1676 1676 P_____________ AL191970 34.7500 -40.9002 SS 52 -2 5 162
1970294N34312 1970 137 NA NA NOT_NAMED 1970-10-25 06:00:00 SS 34.5000 -40.8000 55 hurdat_atl main 1699 1699 O_____________ hurdat_atl AL191970 34.5000 -40.8000 SS 55 -2 5 160
1970294N34312 1970 137 NA NA NOT_NAMED 1970-10-25 09:00:00 SS 34.2499 -40.6726 main 1732 1732 P_____________ AL191970 34.2499 -40.6726 SS 55 -2 6 154
1970294N34312 1970 137 NA NA NOT_NAMED 1970-10-25 12:00:00 TS 34.0000 -40.5000 55 988 hurdat_atl main 1761 1761 O_____________ hurdat_atl AL191970 34.0000 -40.5000 TS 55 988 0 7 155
1970294N34312 1970 137 NA NA NOT_NAMED 1970-10-25 15:00:00 TS 33.5997 -40.3006 main 1808 1808 P_____________ AL191970 33.5997 -40.3006 TS 55 0 7 140
1970294N34312 1970 137 NA NA NOT_NAMED 1970-10-25 18:00:00 TS 33.5000 -40.0000 55 hurdat_atl main 1833 1798 O_____________ hurdat_atl AL191970 33.5000 -40.0000 TS 55 0 9 49
1970294N34312 1970 137 NA NA NOT_NAMED 1970-10-25 21:00:00 TS 34.1756 -39.5037 main 1795 1751 P_____________ AL191970 34.1756 -39.5037 TS 57 0 17 29
1970294N34312 1970 137 NA NA NOT_NAMED 1970-10-26 00:00:00 TS 35.0000 -39.0000 60 hurdat_atl main 1751 1736 O_____________ hurdat_atl AL191970 35.0000 -39.0000 TS 60 0 13 29
1970294N34312 1970 137 NA NA NOT_NAMED 1970-10-26 03:00:00 TS 35.3246 -38.7109 main 1742 1730 P_____________ AL191970 35.3246 -38.7109 TS 60 0 6 39
1970294N34312 1970 137 NA NA NOT_NAMED 1970-10-26 06:00:00 TS 35.5000 -38.5000 60 hurdat_atl main 1736 1731 O_____________ hurdat_atl AL191970 35.5000 -38.5000 TS 60 0 6 41
1970294N34312 1970 137 NA NA NOT_NAMED 1970-10-26 09:00:00 TS 35.7499 -38.2498 main 1737 1724 P_____________ AL191970 35.7499 -38.2498 TS 60 0 6 39
1970294N34312 1970 137 NA NA NOT_NAMED 1970-10-26 12:00:00 TS 36.0000 -38.0000 60 988 hurdat_atl main 1724 1713 O_____________ hurdat_atl AL191970 36.0000 -38.0000 TS 60 988 0 6 37
1970294N34312 1970 137 NA NA NOT_NAMED 1970-10-26 15:00:00 TS 36.2496 -37.7870 main 1719 1707 P_____________ AL191970 36.2496 -37.7870 TS 60 0 6 39
1970294N34312 1970 137 NA NA NOT_NAMED 1970-10-26 18:00:00 TS 36.5000 -37.5000 60 hurdat_atl main 1714 1712 O_____________ hurdat_atl AL191970 36.5000 -37.5000 TS 60 0 8 51
1970294N34312 1970 137 NA NA NOT_NAMED 1970-10-26 21:00:00 TS 36.7275 -37.0519 main 1723 1721 P_____________ AL191970 36.7275 -37.0519 TS 62 0 9 58
1970294N34312 1970 137 NA NA NOT_NAMED 1970-10-27 00:00:00 TS 37.0000 -36.5000 65 hurdat_atl main 1737 1736 O_____________ hurdat_atl AL191970 37.0000 -36.5000 HU 65 1 11 54
1970294N34312 1970 137 NA NA NOT_NAMED 1970-10-27 03:00:00 TS 37.3848 -35.9226 main 1745 1744 P_____________ AL191970 37.3848 -35.9226 HU 65 1 12 50
1970294N34312 1970 137 NA NA NOT_NAMED 1970-10-27 06:00:00 TS 37.8000 -35.3000 65 hurdat_atl main 1756 1755 O_____________ hurdat_atl AL191970 37.8000 -35.3000 HU 65 1 13 53
1970294N34312 1970 137 NA NA NOT_NAMED 1970-10-27 09:00:00 TS 38.1499 -34.6492 main 1781 1774 P_____________ AL191970 38.1499 -34.6492 HU 62 0 12 56
1970294N34312 1970 137 NA NA NOT_NAMED 1970-10-27 12:00:00 TS 38.5000 -34.0000 60 hurdat_atl main 1795 1795 O_____________ hurdat_atl AL191970 38.5000 -34.0000 TS 60 0 12 53
1970294N34312 1970 137 NA NA NOT_NAMED 1970-10-27 15:00:00 TS 38.8995 -33.3995 main 1811 1811 P_____________ AL191970 38.8995 -33.3995 TS 60 0 12 49
1970294N34312 1970 137 NA NA NOT_NAMED 1970-10-27 18:00:00 TS 39.3000 -32.8000 60 hurdat_atl main 1828 1828 O_____________ hurdat_atl AL191970 39.3000 -32.8000 TS 60 0 11 54
1970294N34312 1970 137 NA NA NOT_NAMED 1970-10-27 21:00:00 TS 39.5506 -32.2330 main 1850 1850 P_____________ AL191970 39.5506 -32.2330 TS 60 0 12 55
1970294N34312 1970 137 NA NA NOT_NAMED 1970-10-28 00:00:00 TS 40.0000 -31.5000 60 hurdat_atl main 1866 1771 O_____________ hurdat_atl AL191970 40.0000 -31.5000 TS 60 0 18 47
1970294N34312 1970 137 NA NA NOT_NAMED 1970-10-28 03:00:00 TS 40.8070 -30.4946 main 1760 1625 P_____________ AL191970 40.8070 -30.4946 TS 60 0 28 41
1970294N34312 1970 137 NA NA NOT_NAMED 1970-10-28 06:00:00 TS 42.1000 -29.1000 60 hurdat_atl main 1615 1456 O_____________ hurdat_atl AL191970 42.1000 -29.1000 TS 60 0 39 38
1970294N34312 1970 137 NA NA NOT_NAMED 1970-10-28 09:00:00 TS 43.9155 -27.2350 main 1440 1251 P_____________ AL191970 43.9155 -27.2350 TS 60 0 49 37
1970294N34312 1970 137 NA NA NOT_NAMED 1970-10-28 12:00:00 TS 46.0000 -25.0000 60 hurdat_atl main 1238 O_____________ hurdat_atl AL191970 46.0000 -25.0000 TS 60 0 52 37

IBTrACS Databaseについて

本データベースは、米国NOAAが公開する1842年以降の世界の熱帯低気圧のベストトラックデータアーカイブInternational Best Track Archive for Climate Stewardship (IBTrACS)を、ウェブで閲覧しやすい形式に変換したものです。

最終更新日:2021-10-21